Monroe Regional Airport
KMLU : now visible

Airfield :











YOU CAN JOIN US ON...

 
LOGIN :

Register | Disclaimer

   EN    FR    IT 

 









Legend :    VFR   Marginal VFR   IFR   Intensive IFR   Very Intensive IFR
Visi :
Ceiling :
>= 8 km
>= 3000ft
5 to 8 km
1000 to 3000 ft
1500m to 5 km
500 to 1000 ft
800 to 1500m
200 to 500 ft
< 800m
< 200 ft
Symbols :   Thunderstorms  Fog  Heavy snow  Heavy precipitations  Wind > 20 kt







- Airport Elevation : 79 ft
- IATA code : MLU


KMLU - Monroe Regional

CURRENT METAR :
  • 241753Z 18006KT 10SM BKN041 30/21 A3014 RMK AO2 SLP203 T03000206 10300 20222 58002

EXPIRED METARs :
  • 241653Z VRB04KT 10SM BKN027 30/22 A3014 RMK AO2 SLP206 T03000217
  • 241553Z VRB04KT 10SM BKN023 29/22 A3014 RMK AO2 SLP205 T02890217
  • 241600Z 15008KT 10SM BKN030 29/22 A3014 RMK AO2 T02890217

TAF KMLU
Valid from the 24 at 18:00 until the 25 at 18:00 UTC


241732Z 2418/2518 17006KT P6SM SCT035
FM250100 17003KT P6SM SKC
FM251300 18004KT P6SM SCT010 SCT280
FM251500 20006KT P6SM SCT020 SCT280
KZFW FIR / North America



MET'MAP, your aeronautical weather chart ! - Copyright ORBIFLY December 2007 - Disclaimer

ORBIFLY MET'MAP TEAM :

Programming & Development : Alexandra Zaïnal
Concept & Development : Baudouin d'Aumeries
Co-Development & Prog : Marc-Olivier Méhu
Technical & hardware support : Manuel Goepfert

Contact : metmap@orbifly.com




SOURCES & CREDITS :

   NOAA       Earth
Advisory